Time;durP1;ratioP1;P1;durP2;ratioP2;P2;SDS_P1;SDS_P2;PMS_P1;PMS_P2;Temp;Humidity;BMP_temperature;BMP_pressure;BME280_temperature;BME280_humidity;BME280_pressure;Samples;Min_cycle;Max_cycle;Signal;HPM_P1;HPM_P2
2021/08/12 00:01:33;;;;;;;7.80;5.43;;;25.70;99.90;;;;;;5090677;28;20205;-74
2021/08/12 00:04:00;;;;;;;6.05;5.55;;;25.70;99.90;;;;;;5090730;28;20258;-74
2021/08/12 00:06:28;;;;;;;10.38;7.53;;;25.70;99.90;;;;;;5091275;28;20213;-74
2021/08/12 00:08:55;;;;;;;8.05;6.53;;;25.70;99.90;;;;;;5090351;28;20262;-74
2021/08/12 00:11:22;;;;;;;5.82;5.32;;;25.70;99.90;;;;;;5091293;28;20201;-74
2021/08/12 00:13:49;;;;;;;7.25;5.80;;;25.80;99.90;;;;;;5090416;28;20237;-74
2021/08/12 00:16:16;;;;;;;5.70;5.13;;;25.80;99.90;;;;;;5090978;28;20209;-74
2021/08/12 00:18:43;;;;;;;6.75;4.97;;;25.80;99.90;;;;;;5101922;28;20261;-74
2021/08/12 00:21:10;;;;;;;6.25;5.72;;;25.80;99.90;;;;;;5093901;28;20254;-74
2021/08/12 00:23:39;;;;;;;6.82;6.03;;;25.80;99.90;;;;;;5090867;28;20262;-74
2021/08/12 00:26:06;;;;;;;6.63;6.03;;;25.70;99.90;;;;;;5089821;28;20638;-74
2021/08/12 00:28:32;;;;;;;6.90;5.80;;;25.70;99.90;;;;;;5090711;28;20205;-74
2021/08/12 00:30:59;;;;;;;6.57;5.93;;;25.70;99.90;;;;;;5090336;28;20251;-74
2021/08/12 00:33:26;;;;;;;5.80;5.30;;;25.80;99.90;;;;;;5090764;28;20241;-74
2021/08/12 00:35:54;;;;;;;6.32;5.55;;;25.90;99.90;;;;;;5090317;28;20547;-74
2021/08/12 00:38:20;;;;;;;6.40;5.65;;;25.80;99.90;;;;;;5090409;28;20288;-75
2021/08/12 00:40:49;;;;;;;6.63;5.90;;;25.80;99.90;;;;;;5090108;28;20209;-74
2021/08/12 00:43:16;;;;;;;5.45;4.95;;;25.70;99.90;;;;;;5090417;28;20278;-75
2021/08/12 00:45:43;;;;;;;6.00;5.40;;;25.70;99.90;;;;;;5090809;28;20210;-75
2021/08/12 00:48:10;;;;;;;7.57;6.18;;;25.70;99.90;;;;;;5090352;28;20209;-75
2021/08/12 00:50:40;;;;;;;6.72;5.20;;;25.70;99.90;;;;;;5090687;28;20255;-74
2021/08/12 00:53:08;;;;;;;6.07;5.57;;;25.60;99.90;;;;;;5090219;28;20290;-75
2021/08/12 00:55:36;;;;;;;6.32;5.72;;;25.50;99.90;;;;;;5076520;28;20205;-74
2021/08/12 00:58:06;;;;;;;8.68;7.03;;;25.40;99.90;;;;;;5089847;28;20278;-76
2021/08/12 01:00:35;;;;;;;7.43;5.95;;;25.30;99.90;;;;;;5090075;28;20243;-75
2021/08/12 01:03:03;;;;;;;6.32;5.72;;;25.20;99.90;;;;;;5089950;28;20687;-75
2021/08/12 01:05:31;;;;;;;7.15;6.53;;;25.20;99.90;;;;;;5090025;28;20741;-75
2021/08/12 01:08:06;;;;;;;6.85;6.30;;;25.20;99.90;;;;;;5090178;28;20221;-75
2021/08/12 01:10:44;;;;;;;7.93;7.13;;;25.30;99.90;;;;;;5090215;28;20205;-75
2021/08/12 01:13:18;;;;;;;7.95;7.22;;;25.20;99.90;;;;;;5094146;28;20229;-75
2021/08/12 01:15:50;;;;;;;7.28;6.68;;;25.20;99.90;;;;;;5094331;28;20274;-75
2021/08/12 01:18:28;;;;;;;7.50;6.78;;;25.20;99.90;;;;;;5101542;28;20251;-75
2021/08/12 01:21:34;;;;;;;7.78;7.07;;;25.20;99.90;;;;;;5099050;28;20213;-75
2021/08/12 01:24:06;;;;;;;7.60;6.88;;;25.20;99.90;;;;;;5093769;28;20205;-75
2021/08/12 01:26:35;;;;;;;8.55;7.43;;;25.20;99.90;;;;;;5094144;28;20197;-75
2021/08/12 01:29:06;;;;;;;7.28;6.68;;;25.10;99.90;;;;;;5093696;28;20209;-75
2021/08/12 01:31:44;;;;;;;7.90;5.95;;;25.00;99.90;;;;;;5094043;28;20550;-75
2021/08/12 01:34:22;;;;;;;6.80;6.30;;;25.00;99.90;;;;;;5094448;28;20305;-75
2021/08/12 01:36:54;;;;;;;6.95;5.78;;;24.90;99.90;;;;;;5093381;28;20668;-75
2021/08/12 01:39:23;;;;;;;9.45;6.47;;;24.90;99.90;;;;;;5093705;28;20212;-75
2021/08/12 01:41:53;;;;;;;7.55;6.85;;;24.80;99.90;;;;;;5093469;28;20205;-74
2021/08/12 01:44:23;;;;;;;7.65;6.88;;;24.90;99.90;;;;;;5093606;28;20586;-75
2021/08/12 01:46:51;;;;;;;6.47;5.90;;;24.90;99.90;;;;;;5093324;28;20691;-76
2021/08/12 01:49:18;;;;;;;7.07;6.00;;;24.80;99.90;;;;;;5093972;28;20209;-75
2021/08/12 01:51:47;;;;;;;6.65;5.32;;;24.80;99.90;;;;;;5093785;28;20574;-75
2021/08/12 01:54:16;;;;;;;6.47;5.88;;;24.80;99.90;;;;;;5102788;28;20652;-75
2021/08/12 01:56:44;;;;;;;7.03;6.32;;;24.80;99.90;;;;;;5098337;28;20251;-75
2021/08/12 01:59:13;;;;;;;7.60;6.88;;;24.80;99.90;;;;;;5094112;28;20209;-75
2021/08/12 02:01:40;;;;;;;6.88;6.28;;;24.80;99.90;;;;;;5093859;28;20201;-75
2021/08/12 02:04:09;;;;;;;7.25;6.20;;;24.80;99.90;;;;;;5093133;28;20206;-75
2021/08/12 02:06:38;;;;;;;8.77;5.97;;;24.80;99.90;;;;;;5093357;28;20217;-75
2021/08/12 02:09:05;;;;;;;8.57;6.97;;;24.70;99.90;;;;;;5092579;28;20677;-75
2021/08/12 02:11:35;;;;;;;9.93;6.18;;;24.80;99.90;;;;;;5093618;28;20255;-75
2021/08/12 02:14:03;;;;;;;7.45;6.63;;;24.70;99.90;;;;;;5092863;28;20233;-75
2021/08/12 02:16:30;;;;;;;6.60;6.00;;;24.60;99.90;;;;;;5093622;28;20271;-75
2021/08/12 02:18:57;;;;;;;6.68;6.07;;;24.60;99.90;;;;;;5105500;28;20266;-75
2021/08/12 02:21:32;;;;;;;6.85;6.07;;;24.50;99.90;;;;;;5094112;27;20255;-75
2021/08/12 02:24:03;;;;;;;6.72;6.18;;;24.40;99.90;;;;;;5091802;28;20201;-74
2021/08/12 02:26:35;;;;;;;8.73;6.53;;;24.50;99.90;;;;;;5093011;28;20252;-76
2021/08/12 02:29:03;;;;;;;7.72;7.07;;;24.50;99.90;;;;;;5092486;28;20628;-76
2021/08/12 02:31:31;;;;;;;10.65;6.05;;;24.50;99.90;;;;;;5092455;28;20251;-75
2021/08/12 02:34:00;;;;;;;9.27;6.65;;;24.50;99.90;;;;;;5089761;28;20225;-75
2021/08/12 02:36:28;;;;;;;9.98;7.05;;;24.60;99.90;;;;;;5092847;28;20209;-75
2021/08/12 02:38:56;;;;;;;7.20;6.47;;;24.60;99.90;;;;;;5092746;28;20247;-73
2021/08/12 02:41:25;;;;;;;6.68;5.70;;;24.60;99.90;;;;;;5092528;28;20622;-73
2021/08/12 02:43:55;;;;;;;6.15;5.63;;;24.60;99.90;;;;;;5092151;28;20271;-73
2021/08/12 02:46:25;;;;;;;6.97;6.28;;;24.50;99.90;;;;;;5092799;28;20227;-73
2021/08/12 02:48:53;;;;;;;6.53;5.70;;;24.40;99.90;;;;;;5092049;28;20254;-73
2021/08/12 02:51:21;;;;;;;6.85;6.15;;;24.30;99.90;;;;;;5092573;28;20258;-73
2021/08/12 02:53:49;;;;;;;6.28;5.65;;;24.30;99.90;;;;;;5092122;28;20281;-73
2021/08/12 02:56:17;;;;;;;7.45;6.75;;;24.30;99.90;;;;;;5092595;28;20583;-73
2021/08/12 02:58:45;;;;;;;7.00;6.40;;;24.40;99.90;;;;;;5092462;28;20205;-73
2021/08/12 03:01:15;;;;;;;6.20;5.70;;;24.40;99.90;;;;;;5092491;28;20263;-73
2021/08/12 03:03:45;;;;;;;9.55;6.50;;;24.30;99.90;;;;;;5092865;28;20270;-73
2021/08/12 03:06:16;;;;;;;5.85;5.35;;;24.30;99.90;;;;;;5092089;28;20738;-73
2021/08/12 03:08:46;;;;;;;6.43;5.80;;;24.30;99.90;;;;;;5092501;28;20673;-74
2021/08/12 03:11:16;;;;;;;6.30;5.70;;;24.20;99.90;;;;;;5092503;28;20308;-73
2021/08/12 03:13:44;;;;;;;7.95;6.95;;;24.10;99.90;;;;;;5092164;28;20232;-73
2021/08/12 03:16:11;;;;;;;6.63;6.03;;;24.10;99.90;;;;;;5092321;28;20216;-72
2021/08/12 03:18:39;;;;;;;7.32;6.60;;;24.00;99.90;;;;;;5092415;28;20205;-72
2021/08/12 03:21:07;;;;;;;7.78;6.97;;;24.00;99.90;;;;;;5091374;28;20209;-73
2021/08/12 03:23:34;;;;;;;6.90;6.30;;;23.90;99.90;;;;;;5092214;28;20206;-73
2021/08/12 03:26:02;;;;;;;7.55;6.57;;;23.90;99.90;;;;;;5091471;28;20206;-74
2021/08/12 03:28:29;;;;;;;7.30;6.60;;;23.90;99.90;;;;;;5091742;28;20595;-73
2021/08/12 03:30:56;;;;;;;7.72;7.05;;;23.70;99.90;;;;;;5091695;28;20205;-73
2021/08/12 03:33:23;;;;;;;8.15;7.03;;;23.70;99.90;;;;;;5091777;28;20228;-73
2021/08/12 03:35:51;;;;;;;7.78;6.57;;;23.60;99.90;;;;;;5090301;28;20205;-73
2021/08/12 03:38:20;;;;;;;7.32;6.72;;;23.60;99.90;;;;;;5091489;28;20677;-74
2021/08/12 03:40:48;;;;;;;7.50;6.78;;;23.60;99.90;;;;;;5090966;28;20726;-74
2021/08/12 03:43:15;;;;;;;7.47;6.70;;;23.50;99.90;;;;;;5091677;28;20248;-74
2021/08/12 03:45:42;;;;;;;8.90;8.00;;;23.40;99.90;;;;;;5091908;28;20254;-74
2021/08/12 03:48:09;;;;;;;7.15;6.45;;;23.40;99.90;;;;;;5091608;28;20206;-74
2021/08/12 03:50:36;;;;;;;7.05;6.45;;;23.30;99.90;;;;;;5091281;28;20262;-74
2021/08/12 03:53:05;;;;;;;6.25;5.65;;;23.30;99.90;;;;;;5090955;28;20650;-74
2021/08/12 03:55:32;;;;;;;7.18;6.47;;;23.30;99.90;;;;;;5091042;28;20205;-74
2021/08/12 03:57:59;;;;;;;9.60;7.28;;;23.40;99.90;;;;;;5090947;28;20746;-74
2021/08/12 04:00:26;;;;;;;7.95;7.03;;;23.30;99.90;;;;;;5091049;28;20726;-74
2021/08/12 04:02:52;;;;;;;8.10;7.03;;;23.30;99.90;;;;;;5090764;28;20673;-74
2021/08/12 04:05:19;;;;;;;8.00;7.20;;;23.20;99.90;;;;;;5090934;28;20631;-74
2021/08/12 04:07:46;;;;;;;8.80;6.95;;;23.20;99.90;;;;;;5090744;28;20205;-74
2021/08/12 04:10:15;;;;;;;10.07;7.38;;;23.20;99.90;;;;;;5091662;28;20258;-74
2021/08/12 04:12:42;;;;;;;7.10;6.40;;;23.20;99.90;;;;;;5090942;28;20657;-74
2021/08/12 04:15:09;;;;;;;7.28;6.57;;;23.20;99.90;;;;;;5090697;28;20288;-74
2021/08/12 04:17:36;;;;;;;7.70;7.00;;;23.30;99.90;;;;;;5091023;28;20551;-73
2021/08/12 04:20:04;;;;;;;10.07;7.05;;;23.30;99.90;;;;;;5090563;28;20197;-74
2021/08/12 04:22:31;;;;;;;7.13;6.50;;;23.20;99.90;;;;;;5090655;28;20208;-74
2021/08/12 04:24:58;;;;;;;9.68;6.93;;;23.20;99.90;;;;;;5090810;28;20201;-74
2021/08/12 04:27:26;;;;;;;8.30;7.50;;;23.20;99.90;;;;;;5090918;28;20209;-74
2021/08/12 04:29:53;;;;;;;8.65;7.75;;;23.20;99.90;;;;;;5090550;28;20201;-74
2021/08/12 04:32:20;;;;;;;7.40;6.70;;;23.20;99.90;;;;;;5090624;28;20250;-74
2021/08/12 04:34:47;;;;;;;8.75;7.07;;;23.30;99.90;;;;;;5090088;28;20286;-74
2021/08/12 04:37:14;;;;;;;8.88;6.95;;;23.30;99.90;;;;;;5091172;28;20205;-74
2021/08/12 04:39:41;;;;;;;9.38;8.05;;;23.30;99.90;;;;;;5088021;28;21888;-74
2021/08/12 04:42:08;;;;;;;7.53;6.85;;;23.30;99.90;;;;;;5089240;28;20209;-74
2021/08/12 04:44:36;;;;;;;8.43;7.63;;;23.10;99.90;;;;;;5090541;28;20633;-74
2021/08/12 04:47:03;;;;;;;7.22;6.60;;;23.00;99.90;;;;;;5089853;28;20231;-74
2021/08/12 04:49:30;;;;;;;7.70;7.00;;;23.00;99.90;;;;;;5090495;28;20327;-75
2021/08/12 04:51:57;;;;;;;7.43;6.72;;;23.00;99.90;;;;;;5089882;28;20718;-74
2021/08/12 04:54:24;;;;;;;8.00;7.20;;;22.90;99.90;;;;;;5090522;28;20264;-74
2021/08/12 04:56:51;;;;;;;7.95;7.15;;;23.00;99.90;;;;;;5089623;28;20263;-73
2021/08/12 04:59:18;;;;;;;9.32;7.45;;;23.00;99.90;;;;;;5090494;28;20252;-75
2021/08/12 05:01:46;;;;;;;8.52;7.68;;;22.90;99.90;;;;;;5089802;28;20205;-74
2021/08/12 05:04:13;;;;;;;9.93;8.02;;;22.90;99.90;;;;;;5090556;28;20213;-74
2021/08/12 05:06:40;;;;;;;7.90;6.95;;;22.80;99.90;;;;;;5090864;28;20205;-74
2021/08/12 05:09:07;;;;;;;9.10;7.80;;;22.80;99.90;;;;;;5090081;28;20201;-74
2021/08/12 05:11:34;;;;;;;7.95;7.25;;;22.70;99.90;;;;;;5090584;28;20209;-74
2021/08/12 05:14:01;;;;;;;7.82;6.38;;;22.70;99.90;;;;;;5089795;28;20279;-74
2021/08/12 05:16:28;;;;;;;16.23;7.35;;;22.70;99.90;;;;;;5090110;28;20260;-74
2021/08/12 05:18:56;;;;;;;7.93;7.03;;;22.70;99.90;;;;;;5090089;28;20258;-74
2021/08/12 05:21:23;;;;;;;8.98;8.02;;;22.70;99.90;;;;;;5090343;28;20209;-74
2021/08/12 05:23:50;;;;;;;7.65;6.82;;;22.70;99.90;;;;;;5089955;28;20255;-74
2021/08/12 05:26:17;;;;;;;9.07;8.27;;;22.70;99.90;;;;;;5090185;28;20330;-74
2021/08/12 05:28:44;;;;;;;9.18;7.88;;;22.70;99.90;;;;;;5090252;28;20205;-74
2021/08/12 05:31:11;;;;;;;8.18;7.35;;;22.80;99.90;;;;;;5089841;28;20210;-74
2021/08/12 05:33:38;;;;;;;9.25;8.35;;;22.90;99.90;;;;;;5089965;28;20784;-74
2021/08/12 05:36:07;;;;;;;8.07;7.28;;;23.00;99.90;;;;;;5089383;28;20206;-74
2021/08/12 05:38:34;;;;;;;8.23;7.53;;;23.00;99.90;;;;;;5090282;28;20255;-74
2021/08/12 05:41:01;;;;;;;9.32;8.50;;;23.10;99.90;;;;;;5089660;28;20255;-74
2021/08/12 05:43:28;;;;;;;9.68;7.50;;;23.20;99.90;;;;;;5089750;28;20218;-74
2021/08/12 05:45:55;;;;;;;8.07;7.30;;;23.30;99.90;;;;;;5089424;28;20202;-74
2021/08/12 05:48:22;;;;;;;11.25;7.55;;;23.30;99.90;;;;;;5090046;28;20201;-74
2021/08/12 05:50:49;;;;;;;7.78;7.18;;;23.40;99.90;;;;;;5089822;28;20210;-74
2021/08/12 05:53:19;;;;;;;7.72;7.03;;;23.40;99.90;;;;;;5090212;28;20201;-74
2021/08/12 05:55:47;;;;;;;9.70;7.57;;;23.50;99.90;;;;;;5089563;28;20198;-74
2021/08/12 05:58:14;;;;;;;10.68;7.60;;;23.50;99.90;;;;;;5090619;28;20618;-73
2021/08/12 06:00:41;;;;;;;9.73;8.38;;;23.60;99.90;;;;;;5093371;28;20198;-74
2021/08/12 06:03:10;;;;;;;9.85;7.63;;;23.60;99.90;;;;;;5093264;28;20201;-74
2021/08/12 06:05:37;;;;;;;8.18;7.43;;;23.70;99.90;;;;;;5093191;28;20639;-73
2021/08/12 06:08:06;;;;;;;8.20;7.50;;;23.70;99.90;;;;;;5093116;28;20205;-74
2021/08/12 06:10:35;;;;;;;9.38;8.07;;;23.80;99.90;;;;;;5091961;28;20669;-74
2021/08/12 06:13:03;;;;;;;8.75;7.70;;;23.90;99.90;;;;;;5087526;28;20560;-74
2021/08/12 06:15:32;;;;;;;9.40;8.48;;;23.90;99.90;;;;;;5093206;28;20241;-74
2021/08/12 06:17:59;;;;;;;8.73;7.93;;;23.90;99.90;;;;;;5086778;28;20210;-73
2021/08/12 06:20:26;;;;;;;8.38;7.30;;;23.90;99.90;;;;;;5093058;28;20205;-73
2021/08/12 06:22:53;;;;;;;8.65;7.30;;;23.90;99.90;;;;;;5092658;28;20205;-74
2021/08/12 06:25:21;;;;;;;8.13;7.38;;;23.90;99.90;;;;;;5092865;28;20205;-74
2021/08/12 06:27:50;;;;;;;10.43;8.73;;;23.90;99.90;;;;;;5091502;28;20206;-74
2021/08/12 06:30:18;;;;;;;8.77;7.28;;;23.90;99.90;;;;;;5093101;28;20619;-74
2021/08/12 06:32:45;;;;;;;8.32;7.53;;;24.00;99.90;;;;;;5092974;28;20205;-73
2021/08/12 06:35:12;;;;;;;11.23;8.90;;;23.90;99.90;;;;;;5093120;28;20283;-74
2021/08/12 06:37:47;;;;;;;10.05;8.55;;;24.00;99.90;;;;;;5092756;28;20688;-75
2021/08/12 06:40:15;;;;;;;13.35;7.20;;;24.10;99.90;;;;;;5093002;28;20208;-73
2021/08/12 06:42:42;;;;;;;11.18;8.48;;;24.10;99.90;;;;;;5093062;28;20251;-74
2021/08/12 06:45:12;;;;;;;11.93;8.82;;;24.20;99.90;;;;;;5092299;28;20365;-73
2021/08/12 06:47:39;;;;;;;8.65;7.80;;;24.20;99.90;;;;;;5107579;28;20205;-74
2021/08/12 06:50:07;;;;;;;9.30;8.40;;;24.20;99.90;;;;;;5110234;28;20670;-75
2021/08/12 06:52:35;;;;;;;7.10;6.43;;;24.10;99.90;;;;;;5107847;28;20634;-74
2021/08/12 06:55:03;;;;;;;8.05;7.25;;;24.10;99.90;;;;;;5107618;28;20277;-75
2021/08/12 06:57:30;;;;;;;8.27;7.55;;;24.20;99.90;;;;;;5105099;28;20626;-74
2021/08/12 06:59:57;;;;;;;9.50;7.55;;;24.30;99.90;;;;;;5106472;28;20620;-75
2021/08/12 07:02:25;;;;;;;9.38;8.32;;;24.30;99.90;;;;;;5092380;28;20205;-75
2021/08/12 07:04:52;;;;;;;10.02;7.55;;;24.40;99.90;;;;;;5091768;28;20205;-75
2021/08/12 07:07:19;;;;;;;11.52;8.45;;;24.50;99.90;;;;;;5092142;28;20202;-74
2021/08/12 07:09:47;;;;;;;9.93;7.50;;;24.50;99.90;;;;;;5091715;28;20202;-74
2021/08/12 07:12:15;;;;;;;7.93;7.22;;;24.50;99.90;;;;;;5091962;28;20324;-73
2021/08/12 07:14:42;;;;;;;7.05;6.35;;;24.60;99.90;;;;;;5079420;28;20229;-73
2021/08/12 07:17:09;;;;;;;8.65;7.78;;;24.70;99.90;;;;;;5091995;28;20205;-74
2021/08/12 07:19:37;;;;;;;7.28;6.57;;;24.90;99.90;;;;;;5091812;28;20251;-73
2021/08/12 07:22:05;;;;;;;9.20;7.70;;;24.90;99.90;;;;;;5091670;28;20216;-74
2021/08/12 07:24:32;;;;;;;7.85;7.13;;;24.90;99.90;;;;;;5091807;28;20259;-75
2021/08/12 07:26:59;;;;;;;9.40;8.50;;;24.90;99.90;;;;;;5091252;28;20201;-74
2021/08/12 07:29:26;;;;;;;7.78;7.07;;;24.90;99.90;;;;;;5092044;28;20202;-74
2021/08/12 07:31:53;;;;;;;8.70;7.70;;;24.90;99.90;;;;;;5091411;28;20259;-75
2021/08/12 07:34:20;;;;;;;8.75;7.78;;;24.80;99.90;;;;;;5091506;28;20225;-74
2021/08/12 07:36:49;;;;;;;10.50;9.50;;;25.00;99.90;;;;;;5091191;28;20557;-75
2021/08/12 07:39:16;;;;;;;10.90;8.65;;;25.40;99.90;;;;;;5091636;28;20206;-75
2021/08/12 07:41:43;;;;;;;8.38;7.53;;;25.60;99.90;;;;;;5091357;28;20681;-74
2021/08/12 07:44:10;;;;;;;9.98;7.22;;;25.70;99.90;;;;;;5092317;28;20258;-75
2021/08/12 07:46:38;;;;;;;10.20;7.47;;;25.50;99.90;;;;;;5108966;28;20205;-75
2021/08/12 07:49:05;;;;;;;8.65;7.75;;;25.50;99.90;;;;;;5110240;28;20706;-75
2021/08/12 07:51:32;;;;;;;9.60;8.50;;;25.60;99.90;;;;;;5111408;28;20201;-75
2021/08/12 07:54:01;;;;;;;9.70;8.77;;;25.80;99.90;;;;;;5105727;28;20209;-74
2021/08/12 07:56:28;;;;;;;8.90;7.85;;;26.10;99.90;;;;;;5103378;28;20249;-75
2021/08/12 07:58:54;;;;;;;11.48;7.75;;;26.40;99.90;;;;;;5107407;28;20202;-74
2021/08/12 08:01:21;;;;;;;8.85;7.95;;;26.40;99.90;;;;;;5107985;28;20269;-75
2021/08/12 08:03:48;;;;;;;9.00;8.20;;;26.40;99.90;;;;;;5109184;28;20211;-75
2021/08/12 08:06:16;;;;;;;9.88;7.95;;;26.50;99.90;;;;;;5110247;28;20680;-75
2021/08/12 08:08:43;;;;;;;8.65;7.75;;;26.60;99.90;;;;;;5110993;28;20253;-74
2021/08/12 08:11:14;;;;;;;8.60;7.75;;;26.50;99.90;;;;;;5104389;28;20202;-74
2021/08/12 08:13:41;;;;;;;9.88;8.98;;;26.70;99.90;;;;;;5091307;28;20206;-73
2021/08/12 08:16:08;;;;;;;8.65;7.63;;;26.80;99.90;;;;;;5082718;28;20233;-74
2021/08/12 08:18:35;;;;;;;11.27;8.55;;;27.00;99.90;;;;;;5099174;28;20208;-74
2021/08/12 08:21:02;;;;;;;8.63;7.75;;;27.00;99.90;;;;;;5093195;28;20202;-74
2021/08/12 08:23:29;;;;;;;10.80;8.35;;;27.00;99.90;;;;;;5108271;28;20196;-74
2021/08/12 08:25:56;;;;;;;9.18;8.07;;;26.90;99.90;;;;;;5106087;28;20200;-74
2021/08/12 08:28:24;;;;;;;8.43;7.68;;;27.00;99.90;;;;;;5103447;28;20209;-74
2021/08/12 08:30:51;;;;;;;8.88;8.00;;;27.00;99.90;;;;;;5108519;28;20204;-74
2021/08/12 08:33:18;;;;;;;11.38;8.95;;;27.30;99.90;;;;;;5109123;28;20205;-74
2021/08/12 08:35:45;;;;;;;8.65;7.95;;;27.00;99.90;;;;;;5110284;28;20281;-74
2021/08/12 08:38:12;;;;;;;8.25;7.35;;;27.50;99.90;;;;;;5108022;28;20205;-74
2021/08/12 08:40:39;;;;;;;9.32;7.25;;;27.90;99.90;;;;;;5103846;28;20197;-74
2021/08/12 08:43:08;;;;;;;11.27;8.15;;;28.10;99.90;;;;;;5108350;28;20269;-74
2021/08/12 08:45:39;;;;;;;10.55;7.97;;;28.00;99.90;;;;;;5109476;28;20237;-74
2021/08/12 08:48:10;;;;;;;8.27;7.43;;;28.20;99.90;;;;;;5107159;28;20209;-74
2021/08/12 08:50:38;;;;;;;9.90;7.53;;;28.20;99.90;;;;;;5105404;28;20202;-75
2021/08/12 08:53:05;;;;;;;9.05;7.95;;;28.50;99.90;;;;;;5098796;28;20209;-74
2021/08/12 08:55:33;;;;;;;8.75;7.85;;;28.60;99.90;;;;;;5089804;28;20761;-74
2021/08/12 08:58:00;;;;;;;10.70;7.95;;;28.80;99.90;;;;;;5089809;28;20258;-75
2021/08/12 09:00:28;;;;;;;7.68;6.93;;;29.10;99.90;;;;;;5090399;28;20205;-74
2021/08/12 09:02:57;;;;;;;7.75;6.95;;;29.00;99.90;;;;;;5089966;28;20289;-73
2021/08/12 09:05:24;;;;;;;8.38;7.53;;;29.20;99.90;;;;;;5090410;28;20210;-74
2021/08/12 09:07:51;;;;;;;7.75;6.95;;;29.50;99.90;;;;;;5089337;28;20248;-74
2021/08/12 09:10:19;;;;;;;9.52;8.45;;;29.50;99.90;;;;;;5090341;28;20571;-74
2021/08/12 09:12:46;;;;;;;7.68;7.00;;;29.80;99.90;;;;;;5090078;28;20197;-74
2021/08/12 09:15:18;;;;;;;10.25;8.25;;;30.00;99.90;;;;;;5090710;28;20357;-74
2021/08/12 09:17:45;;;;;;;8.43;7.00;;;30.20;99.90;;;;;;5092183;28;20204;-74
2021/08/12 09:20:16;;;;;;;8.50;7.60;;;30.20;99.90;;;;;;5090395;28;20284;-74
2021/08/12 09:22:55;;;;;;;8.52;7.40;;;30.20;99.90;;;;;;5089753;28;20779;-74
2021/08/12 09:25:34;;;;;;;8.95;7.70;;;30.40;99.90;;;;;;5094001;28;20249;-74
2021/08/12 09:28:22;;;;;;;10.05;6.68;;;30.70;99.90;;;;;;5106935;28;20243;-74
2021/08/12 09:31:06;;;;;;;7.13;6.43;;;30.90;99.90;;;;;;5108340;28;20200;-75
2021/08/12 09:33:41;;;;;;;7.40;6.80;;;32.80;99.90;;;;;;5108400;28;20204;-74
2021/08/12 09:36:23;;;;;;;7.68;7.00;;;34.60;99.90;;;;;;5111756;28;20235;-74
2021/08/12 09:39:05;;;;;;;7.78;6.72;;;36.60;99.90;;;;;;5104636;28;20200;-75
2021/08/12 09:41:38;;;;;;;7.30;6.63;;;37.20;99.90;;;;;;5108311;28;20200;-75
2021/08/12 09:44:05;;;;;;;7.53;6.70;;;38.10;99.90;;;;;;5108774;28;20334;-74
2021/08/12 09:46:34;;;;;;;9.02;7.25;;;38.60;99.90;;;;;;5108603;28;20200;-74
2021/08/12 09:49:03;;;;;;;7.13;6.15;;;40.30;99.90;;;;;;5104842;28;20209;-75
2021/08/12 09:51:34;;;;;;;7.03;6.32;;;40.40;99.90;;;;;;5093592;28;20299;-75
2021/08/12 09:54:04;;;;;;;7.53;6.40;;;39.00;99.90;;;;;;5093195;28;20254;-75
2021/08/12 09:56:32;;;;;;;7.68;6.97;;;36.90;99.90;;;;;;5093306;28;20746;-75
2021/08/12 09:59:06;;;;;;;7.25;6.53;;;37.40;99.90;;;;;;5092551;28;20745;-75
2021/08/12 10:01:34;;;;;;;6.72;6.10;;;38.90;99.90;;;;;;5093431;28;20211;-75
2021/08/12 10:04:23;;;;;;;6.40;5.93;;;39.50;99.90;;;;;;5092970;28;20204;-75
2021/08/12 10:06:51;;;;;;;6.72;6.13;;;39.30;99.90;;;;;;5099504;28;20306;-75
2021/08/12 10:09:18;;;;;;;7.72;6.35;;;39.50;99.90;;;;;;5093335;28;20205;-75
2021/08/12 10:11:45;;;;;;;6.75;5.97;;;39.70;99.90;;;;;;5093477;28;20209;-76
2021/08/12 10:14:12;;;;;;;6.90;6.40;;;40.10;99.90;;;;;;5093317;28;20205;-75
2021/08/12 10:16:40;;;;;;;6.35;5.75;;;42.10;99.90;;;;;;5093112;28;20707;-75
2021/08/12 10:19:08;;;;;;;7.28;6.07;;;41.90;99.90;;;;;;5092573;28;20216;-75
2021/08/12 10:21:38;;;;;;;6.97;6.28;;;42.80;99.90;;;;;;5092970;28;20212;-75
2021/08/12 10:24:08;;;;;;;7.03;6.28;;;41.90;99.90;;;;;;5092729;28;20426;-75
2021/08/12 10:26:36;;;;;;;5.95;5.45;;;41.90;99.90;;;;;;5092759;28;20254;-75
2021/08/12 10:29:05;;;;;;;7.38;6.30;;;40.60;99.90;;;;;;5092140;28;20205;-75
2021/08/12 10:31:33;;;;;;;7.18;6.57;;;38.60;99.90;;;;;;5092863;28;20212;-75
2021/08/12 10:34:00;;;;;;;6.68;6.00;;;37.90;99.90;;;;;;5092599;28;20265;-75
2021/08/12 10:36:27;;;;;;;6.07;5.57;;;38.40;99.90;;;;;;5092488;28;20229;-75
2021/08/12 10:38:55;;;;;;;7.15;6.40;;;37.90;99.90;;;;;;5092260;28;20725;-75
2021/08/12 10:41:24;;;;;;;6.20;5.60;;;36.30;99.90;;;;;;5092545;28;20208;-75
2021/08/12 10:43:56;;;;;;;6.75;6.25;;;35.30;99.90;;;;;;5091507;28;20262;-75
2021/08/12 10:46:35;;;;;;;7.32;6.72;;;35.30;99.90;;;;;;5092607;28;20643;-75
2021/08/12 10:49:26;;;;;;;7.45;6.47;;;34.60;99.90;;;;;;5092119;28;20254;-75
2021/08/12 10:52:01;;;;;;;8.10;7.20;;;34.40;99.90;;;;;;5088808;28;20200;-75
2021/08/12 10:54:28;;;;;;;6.95;6.35;;;34.60;99.90;;;;;;5092475;28;20287;-76
2021/08/12 10:57:18;;;;;;;6.80;6.07;;;34.60;99.90;;;;;;5091696;28;20224;-75
2021/08/12 10:59:47;;;;;;;7.45;6.75;;;34.70;99.90;;;;;;5092258;28;20212;-75
2021/08/12 11:02:42;;;;;;;7.70;6.70;;;34.80;99.90;;;;;;5088905;28;20208;-75
2021/08/12 11:05:09;;;;;;;6.80;6.30;;;34.30;99.90;;;;;;5091882;28;20288;-75
2021/08/12 11:07:51;;;;;;;7.03;6.40;;;34.50;99.90;;;;;;5091932;28;20200;-75
2021/08/12 11:10:18;;;;;;;6.80;6.15;;;34.60;99.90;;;;;;5092263;28;20287;-75
2021/08/12 11:13:05;;;;;;;6.50;5.90;;;34.70;99.90;;;;;;5091776;28;20203;-75
2021/08/12 11:16:00;;;;;;;6.10;5.55;;;34.10;99.90;;;;;;5085937;28;20224;-76
2021/08/12 11:18:44;;;;;;;9.02;6.45;;;34.10;99.90;;;;;;5095302;28;20204;-75
2021/08/12 11:21:35;;;;;;;6.57;6.07;;;33.90;99.90;;;;;;5092187;28;20201;-76
2021/08/12 11:24:04;;;;;;;7.85;5.70;;;33.50;99.90;;;;;;5077038;28;20602;-75
2021/08/12 11:27:07;;;;;;;6.25;5.72;;;33.40;99.90;;;;;;5094488;28;20205;-75
2021/08/12 11:29:36;;;;;;;6.50;5.97;;;32.70;99.90;;;;;;5091412;28;20230;-75
2021/08/12 11:32:09;;;;;;;6.93;5.50;;;32.50;99.90;;;;;;5091272;28;20546;-76
2021/08/12 11:34:41;;;;;;;6.65;5.95;;;32.20;99.90;;;;;;5091172;28;20209;-76
2021/08/12 11:37:12;;;;;;;5.40;4.97;;;32.20;99.90;;;;;;5080844;28;20580;-76
2021/08/12 11:39:54;;;;;;;5.85;5.45;;;32.30;99.90;;;;;;5091705;28;20205;-76
2021/08/12 11:42:27;;;;;;;6.63;6.05;;;32.20;99.90;;;;;;5091427;28;20619;-76
2021/08/12 11:44:57;;;;;;;6.78;5.53;;;32.30;99.90;;;;;;5090923;28;20258;-77
2021/08/12 11:47:25;;;;;;;6.20;5.68;;;31.80;99.90;;;;;;5092868;28;20273;-77
2021/08/12 11:49:54;;;;;;;5.55;5.05;;;31.40;99.90;;;;;;5090983;28;20213;-76
2021/08/12 11:52:28;;;;;;;6.97;5.53;;;30.90;99.90;;;;;;5091389;28;20616;-76
2021/08/12 11:54:58;;;;;;;6.32;5.82;;;30.80;99.90;;;;;;5090722;28;20665;-77
2021/08/12 11:57:44;;;;;;;6.95;5.75;;;30.80;99.90;;;;;;5090131;28;20228;-77
2021/08/12 12:00:14;;;;;;;6.82;6.05;;;31.10;99.90;;;;;;5091689;28;20200;-77
2021/08/12 12:02:49;;;;;;;6.97;5.32;;;31.00;99.90;;;;;;5095336;28;20250;-76
2021/08/12 12:05:17;;;;;;;6.13;5.60;;;30.90;99.90;;;;;;5091117;28;20208;-76
2021/08/12 12:07:45;;;;;;;6.65;5.20;;;30.80;99.90;;;;;;5091054;28;20261;-76
2021/08/12 12:10:12;;;;;;;5.25;4.75;;;31.10;99.90;;;;;;5091279;28;20254;-76
2021/08/12 12:12:39;;;;;;;5.80;5.00;;;31.40;99.90;;;;;;5091010;28;20200;-75
2021/08/12 12:15:07;;;;;;;6.53;5.53;;;32.20;99.90;;;;;;5090434;28;20238;-76
2021/08/12 12:17:35;;;;;;;5.72;5.22;;;33.10;99.90;;;;;;5090337;28;20676;-77
2021/08/12 12:20:09;;;;;;;6.75;5.47;;;33.80;99.90;;;;;;5090474;28;20360;-76
2021/08/12 12:22:39;;;;;;;6.93;5.93;;;34.20;99.90;;;;;;5092033;28;20212;-76
2021/08/12 12:25:08;;;;;;;6.47;5.35;;;34.10;99.90;;;;;;5090467;28;20670;-76
2021/08/12 12:27:35;;;;;;;7.55;5.30;;;34.20;99.90;;;;;;5090400;28;20634;-75
2021/08/12 12:30:12;;;;;;;5.35;4.63;;;34.10;99.90;;;;;;5090395;28;20311;-75
2021/08/12 12:32:44;;;;;;;6.43;4.68;;;34.30;99.90;;;;;;5090813;28;20208;-76
2021/08/12 12:35:12;;;;;;;4.78;4.30;;;34.30;99.90;;;;;;5091175;28;20211;-76
2021/08/12 12:37:42;;;;;;;6.10;4.50;;;34.50;99.90;;;;;;5090721;28;20757;-76
2021/08/12 12:40:16;;;;;;;4.85;4.10;;;34.40;99.90;;;;;;5090150;28;20197;-76
2021/08/12 12:42:43;;;;;;;7.22;5.65;;;34.50;99.90;;;;;;5090706;28;20234;-77
2021/08/12 12:45:12;;;;;;;6.68;6.07;;;34.30;99.90;;;;;;5091110;28;20201;-77
2021/08/12 12:47:41;;;;;;;7.03;6.05;;;34.30;99.90;;;;;;5091198;28;20256;-77
2021/08/12 12:50:14;;;;;;;6.95;6.13;;;34.30;99.90;;;;;;5089838;28;20204;-76
2021/08/12 12:53:01;;;;;;;5.65;5.05;;;34.30;99.90;;;;;;5091100;28;20224;-76
2021/08/12 12:55:34;;;;;;;5.80;5.30;;;34.20;99.90;;;;;;5090475;28;20265;-78
2021/08/12 12:58:13;;;;;;;7.85;5.53;;;34.00;99.90;;;;;;5090405;28;20560;-76